createdAt,value
2022-10-04T00:04:03.771Z,88.00
2022-10-04T00:09:12.163Z,88.05
2022-10-04T00:14:28.655Z,87.41
2022-10-04T00:19:45.682Z,88.14
2022-10-04T00:25:33.575Z,87.69
2022-10-04T00:30:38.353Z,88.19
2022-10-04T00:35:40.034Z,88.10
2022-10-04T00:41:03.756Z,87.96
2022-10-04T00:46:11.595Z,88.36
2022-10-04T00:51:25.293Z,88.48
2022-10-04T00:56:37.225Z,88.48
2022-10-04T01:01:39.153Z,89.58
2022-10-04T01:06:42.331Z,89.53
2022-10-04T01:11:52.912Z,89.35
2022-10-04T01:16:54.698Z,89.78
2022-10-04T01:22:05.338Z,89.99
2022-10-04T01:27:35.790Z,89.95
2022-10-04T01:32:38.085Z,90.41
2022-10-04T01:37:40.601Z,90.31
2022-10-04T01:42:52.160Z,90.29
2022-10-04T01:47:59.855Z,90.43
2022-10-04T01:53:07.477Z,90.61
2022-10-04T01:58:17.338Z,91.54
2022-10-04T02:03:26.450Z,92.13
2022-10-04T02:08:33.018Z,92.44
2022-10-04T02:13:38.671Z,92.53
2022-10-04T02:18:43.634Z,93.50
2022-10-04T02:23:47.151Z,92.86
2022-10-04T02:28:49.179Z,93.59
2022-10-04T02:33:55.397Z,93.56
2022-10-04T02:39:44.022Z,93.48
2022-10-04T02:44:57.647Z,93.61
2022-10-04T02:50:06.765Z,93.81
2022-10-04T02:55:14.504Z,94.00
2022-10-04T03:00:48.696Z,94.45
2022-10-04T03:06:02.598Z,93.96
2022-10-04T03:11:05.676Z,93.85
2022-10-04T03:16:08.283Z,93.55
2022-10-04T03:21:12.720Z,92.97
2022-10-04T03:26:20.837Z,93.04
2022-10-04T03:31:23.513Z,93.89
2022-10-04T03:36:27.419Z,94.31
2022-10-04T03:41:29.136Z,94.08
2022-10-04T03:46:30.871Z,94.21
2022-10-04T03:51:32.819Z,93.95
2022-10-04T03:56:36.930Z,94.17
2022-10-04T04:01:57.347Z,94.54
2022-10-04T04:07:33.813Z,95.10
2022-10-04T04:12:40.605Z,95.02
2022-10-04T04:17:52.693Z,95.02
2022-10-04T04:23:00.237Z,95.03
2022-10-04T04:28:13.993Z,95.03
2022-10-04T04:33:26.930Z,94.81
2022-10-04T04:38:28.579Z,94.55
2022-10-04T04:43:30.972Z,94.93
2022-10-04T04:48:32.796Z,94.72
2022-10-04T04:53:34.788Z,95.15
2022-10-04T04:58:42.021Z,95.71
2022-10-04T05:03:43.714Z,95.97
2022-10-04T05:08:50.799Z,96.21
2022-10-04T05:13:57.417Z,96.45
2022-10-04T05:19:01.926Z,96.46
2022-10-04T05:24:13.972Z,96.45
2022-10-04T05:29:19.626Z,96.34
2022-10-04T05:34:25.609Z,96.73
2022-10-04T05:39:36.704Z,96.19
2022-10-04T05:44:52.950Z,96.37
2022-10-04T05:49:57.895Z,95.87
2022-10-04T05:55:24.030Z,95.61
2022-10-04T06:00:39.776Z,96.12
2022-10-04T06:05:49.538Z,96.81
2022-10-04T06:10:52.383Z,97.10
2022-10-04T06:16:24.905Z,96.82
2022-10-04T06:21:31.183Z,96.76
2022-10-04T06:26:47.491Z,96.28
2022-10-04T06:31:58.711Z,96.06
2022-10-04T06:37:32.605Z,96.66
2022-10-04T06:42:53.451Z,97.16
2022-10-04T06:48:21.190Z,97.10
2022-10-04T06:53:31.768Z,96.26
2022-10-04T06:58:50.647Z,96.37
2022-10-04T07:04:01.351Z,96.77
2022-10-04T07:09:07.895Z,96.11
2022-10-04T07:14:18.734Z,95.76
2022-10-04T07:19:20.296Z,95.91
2022-10-04T07:25:03.163Z,95.86
2022-10-04T07:30:07.797Z,95.79
2022-10-04T07:35:09.465Z,96.31
2022-10-04T07:40:46.595Z,96.04
2022-10-04T07:45:49.619Z,96.60
2022-10-04T07:51:15.894Z,96.29
2022-10-04T07:56:28.339Z,96.34
2022-10-04T08:01:40.352Z,96.58
2022-10-04T08:07:03.533Z,96.06
2022-10-04T08:12:28.931Z,96.38
2022-10-04T08:17:39.476Z,96.21
2022-10-04T08:23:16.948Z,93.65
2022-10-04T08:28:46.370Z,92.47
2022-10-04T08:34:45.358Z,89.57
2022-10-04T08:39:58.724Z,89.12
2022-10-04T08:45:24.900Z,87.25
2022-10-04T08:50:44.476Z,86.34
2022-10-04T08:56:04.351Z,86.20
2022-10-04T09:01:19.400Z,84.21
2022-10-04T09:06:29.804Z,84.42
2022-10-04T09:11:41.605Z,83.48
2022-10-04T09:16:47.574Z,82.14
2022-10-04T09:22:13.354Z,83.19
2022-10-04T09:27:54.581Z,80.68
2022-10-04T09:33:25.969Z,80.58
2022-10-04T09:39:25.093Z,77.39
2022-10-04T09:45:02.794Z,76.24
2022-10-04T09:50:13.918Z,76.80
2022-10-04T09:55:34.184Z,76.29
2022-10-04T10:00:39.334Z,76.80
2022-10-04T10:06:15.090Z,75.44
2022-10-04T10:12:11.631Z,74.17
2022-10-04T10:17:24.718Z,74.68
2022-10-04T10:23:03.984Z,75.00
2022-10-04T10:28:25.328Z,74.24
2022-10-04T10:33:46.234Z,75.46
2022-10-04T10:39:15.950Z,75.58
2022-10-04T10:44:44.230Z,76.75
2022-10-04T10:49:53.029Z,73.56
2022-10-04T10:55:20.306Z,70.26
2022-10-04T11:00:29.995Z,69.62
2022-10-04T11:05:31.923Z,69.26
2022-10-04T11:10:52.177Z,67.88
2022-10-04T11:16:07.220Z,67.40
2022-10-04T11:21:46.392Z,68.05
2022-10-04T11:27:06.876Z,69.21
2022-10-04T11:32:20.621Z,69.26
2022-10-04T11:37:33.719Z,68.51
2022-10-04T11:43:13.123Z,68.44
2022-10-04T11:48:41.487Z,65.83
2022-10-04T11:53:42.999Z,64.34
2022-10-04T11:59:18.791Z,63.04
2022-10-04T12:04:20.898Z,62.37
2022-10-04T12:09:36.888Z,61.69
2022-10-04T12:14:53.554Z,60.89
2022-10-04T12:20:28.836Z,59.32
2022-10-04T12:25:46.284Z,59.67
2022-10-04T12:31:23.913Z,58.31
2022-10-04T12:36:49.531Z,59.28
2022-10-04T12:42:12.970Z,60.16
2022-10-04T12:47:48.994Z,60.98
2022-10-04T12:53:11.875Z,62.09
2022-10-04T12:58:25.946Z,60.98
2022-10-04T13:03:53.918Z,62.02
2022-10-04T13:09:05.891Z,61.30
2022-10-04T13:14:22.855Z,61.86
2022-10-04T13:19:50.327Z,61.77
2022-10-04T13:25:11.368Z,63.44
2022-10-04T13:30:23.632Z,63.42
2022-10-04T13:35:54.646Z,63.44
2022-10-04T13:41:10.748Z,63.49
2022-10-04T13:46:44.773Z,64.47
2022-10-04T13:52:40.013Z,64.10
2022-10-04T13:58:01.446Z,65.04
2022-10-04T14:03:15.131Z,65.84
2022-10-04T14:08:25.903Z,66.81
2022-10-04T14:13:57.443Z,67.80
2022-10-04T14:19:08.407Z,68.47
2022-10-04T14:24:38.975Z,70.06
2022-10-04T14:30:12.537Z,70.27
2022-10-04T14:35:34.369Z,70.60
2022-10-04T14:41:06.257Z,71.71
2022-10-04T14:46:45.277Z,72.17
2022-10-04T14:52:04.321Z,72.43
2022-10-04T14:57:12.315Z,72.94
2022-10-04T15:02:17.418Z,73.55
2022-10-04T15:07:30.170Z,73.82
2022-10-04T15:12:51.982Z,73.40
2022-10-04T15:18:17.173Z,74.02
2022-10-04T15:23:37.985Z,74.33
2022-10-04T15:28:48.769Z,74.09
2022-10-04T15:34:10.100Z,75.01
2022-10-04T15:39:50.942Z,74.98
2022-10-04T15:45:00.225Z,75.23
2022-10-04T15:50:21.393Z,75.62
2022-10-04T15:56:04.021Z,75.57
2022-10-04T16:01:55.368Z,76.12
2022-10-04T16:07:10.785Z,76.71
2022-10-04T16:12:29.244Z,76.53
2022-10-04T16:17:53.216Z,76.99
2022-10-04T16:23:27.994Z,77.16
2022-10-04T16:28:39.455Z,78.04
2022-10-04T16:33:55.832Z,78.42
2022-10-04T16:39:19.554Z,79.01
2022-10-04T16:44:40.699Z,79.37
2022-10-04T16:49:55.009Z,79.65
2022-10-04T16:55:25.111Z,79.78
2022-10-04T17:00:37.807Z,79.88
2022-10-04T17:06:10.320Z,80.14
2022-10-04T17:11:33.925Z,79.57
2022-10-04T17:16:38.850Z,79.42
2022-10-04T17:22:04.225Z,79.92
2022-10-04T17:27:39.343Z,80.85
2022-10-04T17:32:48.099Z,81.16
2022-10-04T17:38:08.871Z,81.62
2022-10-04T17:43:34.351Z,81.19
2022-10-04T17:49:23.029Z,80.47
2022-10-04T17:54:50.551Z,79.95
2022-10-04T18:00:14.238Z,79.70
2022-10-04T18:05:22.319Z,79.73
2022-10-04T18:10:38.026Z,80.29
2022-10-04T18:15:51.370Z,80.89
2022-10-04T18:21:06.243Z,81.54
2022-10-04T18:26:19.162Z,82.32
2022-10-04T18:31:24.247Z,82.72
2022-10-04T18:36:37.169Z,83.19
2022-10-04T18:41:56.804Z,83.76
2022-10-04T18:47:02.369Z,84.07
2022-10-04T18:52:10.150Z,83.63
2022-10-04T18:57:33.290Z,82.31
2022-10-04T19:02:43.484Z,82.26
2022-10-04T19:07:51.019Z,82.17
2022-10-04T19:13:17.481Z,82.47
2022-10-04T19:18:36.823Z,82.31
2022-10-04T19:23:58.334Z,82.50
2022-10-04T19:29:24.662Z,82.85
2022-10-04T19:34:48.324Z,82.75
2022-10-04T19:40:22.957Z,82.72
2022-10-04T19:45:48.519Z,82.66
2022-10-04T19:50:56.859Z,82.45
2022-10-04T19:55:59.761Z,82.67
2022-10-04T20:01:01.477Z,82.88
2022-10-04T20:06:04.127Z,82.84
2022-10-04T20:11:48.445Z,82.55
2022-10-04T20:16:53.259Z,82.09
2022-10-04T20:21:57.018Z,81.44
2022-10-04T20:27:06.694Z,80.78
2022-10-04T20:32:10.824Z,80.38
2022-10-04T20:37:14.468Z,79.95
2022-10-04T20:42:26.319Z,79.57
2022-10-04T20:47:51.207Z,79.56
2022-10-04T20:52:57.083Z,79.58
2022-10-04T20:58:21.920Z,79.91
2022-10-04T21:03:24.584Z,79.62
2022-10-04T21:08:27.445Z,79.74
2022-10-04T21:13:46.875Z,79.95
2022-10-04T21:18:48.666Z,79.73
2022-10-04T21:23:50.370Z,79.81
2022-10-04T21:29:01.621Z,79.87
2022-10-04T21:34:03.254Z,79.62
2022-10-04T21:39:04.866Z,79.48
2022-10-04T21:44:06.916Z,79.46
2022-10-04T21:49:08.598Z,79.29
2022-10-04T21:54:10.306Z,78.96
2022-10-04T21:59:11.957Z,79.13
2022-10-04T22:04:13.755Z,79.20
2022-10-04T22:09:15.524Z,79.27
2022-10-04T22:14:17.176Z,79.15
2022-10-04T22:19:20.934Z,79.06
2022-10-04T22:24:22.798Z,79.01
2022-10-04T22:29:26.145Z,79.02
2022-10-04T22:34:27.799Z,79.26
2022-10-04T22:39:32.588Z,79.67
2022-10-04T22:44:38.898Z,79.64
2022-10-04T22:49:46.684Z,80.31
2022-10-04T22:54:57.875Z,80.74
2022-10-04T22:59:59.476Z,81.23
2022-10-04T23:05:18.031Z,81.76
2022-10-04T23:10:19.922Z,82.04
2022-10-04T23:15:21.637Z,81.69
2022-10-04T23:20:23.682Z,82.27
2022-10-04T23:25:28.748Z,82.66
2022-10-04T23:30:30.409Z,82.84
2022-10-04T23:35:34.081Z,83.51
2022-10-04T23:40:35.759Z,83.58
2022-10-04T23:45:42.081Z,83.77
2022-10-04T23:50:50.772Z,83.88
2022-10-04T23:55:57.402Z,83.89
